createdAt,value
2019-05-13T00:00:29.262Z,84.80
2019-05-13T00:01:29.234Z,84.59
2019-05-13T00:02:29.484Z,84.69
2019-05-13T00:03:29.208Z,84.59
2019-05-13T00:04:29.208Z,84.69
2019-05-13T00:05:29.185Z,84.17
2019-05-13T00:06:29.174Z,83.48
2019-05-13T00:07:29.187Z,85.46
2019-05-13T00:08:29.172Z,84.94
2019-05-13T00:09:29.151Z,85.46
2019-05-13T00:10:29.141Z,85.66
2019-05-13T00:11:29.118Z,86.18
2019-05-13T00:12:29.137Z,85.87
2019-05-13T00:13:29.104Z,85.97
2019-05-13T00:14:29.099Z,85.87
2019-05-13T00:15:29.956Z,85.56
2019-05-13T00:16:29.084Z,85.66
2019-05-13T00:17:29.053Z,86.33
2019-05-13T00:18:29.078Z,86.64
2019-05-13T00:19:29.033Z,85.81
2019-05-13T00:20:29.029Z,86.43
2019-05-13T00:21:29.006Z,86.88
2019-05-13T00:22:29.016Z,86.88
2019-05-13T00:23:35.952Z,87.51
2019-05-13T00:24:29.000Z,87.71
2019-05-13T00:25:28.973Z,88.02
2019-05-13T00:26:28.953Z,87.19
2019-05-13T00:27:28.943Z,87.61
2019-05-13T00:28:29.570Z,88.65
2019-05-13T00:29:28.919Z,88.48
2019-05-13T00:30:28.922Z,88.59
2019-05-13T00:31:28.919Z,88.79
2019-05-13T00:32:28.887Z,88.48
2019-05-13T00:33:28.880Z,88.75
2019-05-13T00:34:29.453Z,89.11
2019-05-13T00:35:28.864Z,88.90
2019-05-13T00:36:28.843Z,88.79
2019-05-13T00:37:28.842Z,89.73
2019-05-13T00:38:29.450Z,89.06
2019-05-13T00:39:28.822Z,88.02
2019-05-13T00:40:28.810Z,88.38
2019-05-13T00:41:28.829Z,88.90
2019-05-13T00:42:28.773Z,88.90
2019-05-13T00:43:28.762Z,89.52
2019-05-13T00:44:28.769Z,89.15
2019-05-13T00:45:28.923Z,89.46
2019-05-13T00:46:28.735Z,89.50
2019-05-13T00:47:28.756Z,90.85
2019-05-13T00:48:29.819Z,89.70
2019-05-13T00:49:28.700Z,90.23
2019-05-13T00:50:28.686Z,91.58
2019-05-13T00:51:28.672Z,91.52
2019-05-13T00:52:28.664Z,91.20
2019-05-13T00:53:28.670Z,91.41
2019-05-13T00:54:28.640Z,91.62
2019-05-13T00:55:28.664Z,91.72
2019-05-13T00:56:28.618Z,92.24
2019-05-13T00:57:29.458Z,92.86
2019-05-13T00:58:28.600Z,92.39
2019-05-13T00:59:28.598Z,93.12
2019-05-13T01:00:28.583Z,92.70
2019-05-13T01:01:28.586Z,93.54
2019-05-13T01:02:28.553Z,93.01
2019-05-13T01:03:28.556Z,93.12
2019-05-13T01:04:28.544Z,92.80
2019-05-13T01:05:28.526Z,92.91
2019-05-13T01:06:28.517Z,92.91
2019-05-13T01:07:29.109Z,93.16
2019-05-13T01:08:28.490Z,93.33
2019-05-13T01:09:28.491Z,93.27
2019-05-13T01:10:28.507Z,92.89
2019-05-13T01:11:28.463Z,92.54
2019-05-13T01:12:28.442Z,93.52
2019-05-13T01:13:28.439Z,93.83
2019-05-13T01:14:28.421Z,93.83
2019-05-13T01:15:28.410Z,94.24
2019-05-13T01:16:28.438Z,94.60
2019-05-13T01:17:28.398Z,94.70
2019-05-13T01:18:28.377Z,94.81
2019-05-13T01:19:28.371Z,94.43
2019-05-13T01:20:28.387Z,95.02
2019-05-13T01:21:28.341Z,95.37
2019-05-13T01:22:28.345Z,95.27
2019-05-13T01:23:28.328Z,95.17
2019-05-13T01:24:28.337Z,94.90
2019-05-13T01:25:28.301Z,96.31
2019-05-13T01:26:28.287Z,96.31
2019-05-13T01:27:28.278Z,97.25
2019-05-13T01:28:28.538Z,97.61
2019-05-13T01:29:28.254Z,98.13
2019-05-13T01:30:28.242Z,97.98
2019-05-13T01:31:28.241Z,98.50
2019-05-13T01:32:28.222Z,98.08
2019-05-13T01:33:28.207Z,97.88
2019-05-13T01:34:28.229Z,97.40
2019-05-13T01:35:28.185Z,97.24
2019-05-13T01:36:28.186Z,97.09
2019-05-13T01:37:39.901Z,97.13
2019-05-13T01:38:29.154Z,97.34
2019-05-13T01:39:28.153Z,97.55
2019-05-13T01:40:28.133Z,96.92
2019-05-13T01:41:28.129Z,97.24
2019-05-13T01:42:28.109Z,97.49
2019-05-13T01:43:28.101Z,97.49
2019-05-13T01:44:28.101Z,97.11
2019-05-13T01:45:28.080Z,97.70
2019-05-13T01:46:28.068Z,98.05
2019-05-13T01:47:28.052Z,98.22
2019-05-13T01:48:28.052Z,98.53
2019-05-13T01:49:28.074Z,98.43
2019-05-13T01:50:28.028Z,99.26
2019-05-13T01:51:28.011Z,99.53
2019-05-13T01:52:27.995Z,99.57
2019-05-13T01:53:27.986Z,99.68
2019-05-13T01:54:27.976Z,99.37
2019-05-13T01:55:28.009Z,99.79
2019-05-13T01:56:27.952Z,99.95
2019-05-13T01:57:27.944Z,99.57
2019-05-13T01:58:27.936Z,99.68
2019-05-13T01:59:27.920Z,99.99
2019-05-13T02:00:27.907Z,99.68
2019-05-13T02:01:27.945Z,99.68
2019-05-13T02:02:27.887Z,99.99
2019-05-13T02:03:27.877Z,99.99
2019-05-13T02:04:27.867Z,99.99
2019-05-13T02:05:27.853Z,99.99
2019-05-13T02:06:27.940Z,99.99
2019-05-13T02:07:27.879Z,99.99
2019-05-13T02:08:27.819Z,99.99
2019-05-13T02:09:27.808Z,99.99
2019-05-13T02:10:27.799Z,99.89
2019-05-13T02:11:27.787Z,99.99
2019-05-13T02:12:27.778Z,99.99
2019-05-13T02:13:27.782Z,99.99
2019-05-13T02:14:27.754Z,99.99
2019-05-13T02:15:27.745Z,99.99
2019-05-13T02:16:27.745Z,99.99
2019-05-13T02:17:27.747Z,99.99
2019-05-13T02:18:27.709Z,99.99
2019-05-13T02:19:27.723Z,99.99
2019-05-13T02:20:27.693Z,99.99
2019-05-13T02:21:27.678Z,99.99
2019-05-13T02:22:27.671Z,99.99
2019-05-13T02:23:27.690Z,99.99
2019-05-13T02:24:27.646Z,99.99
2019-05-13T02:25:27.643Z,99.99
2019-05-13T02:26:27.621Z,99.99
2019-05-13T02:27:27.612Z,99.99
2019-05-13T02:28:27.597Z,99.99
2019-05-13T02:29:27.604Z,99.99
2019-05-13T02:30:27.580Z,99.99
2019-05-13T02:31:41.546Z,99.99
2019-05-13T02:32:28.553Z,99.99
2019-05-13T02:33:27.545Z,99.99
2019-05-13T02:34:27.545Z,99.99
2019-05-13T02:35:27.520Z,99.99
2019-05-13T02:36:27.511Z,99.99
2019-05-13T02:37:29.636Z,99.99
2019-05-13T02:38:31.813Z,99.99
2019-05-13T02:39:28.489Z,99.99
2019-05-13T02:40:27.468Z,99.99
2019-05-13T02:41:27.474Z,99.99
2019-05-13T02:42:27.450Z,99.99
2019-05-13T02:43:27.445Z,99.99
2019-05-13T02:44:27.423Z,99.99
2019-05-13T02:45:27.414Z,99.99
2019-05-13T02:46:27.415Z,99.99
2019-05-13T02:47:27.433Z,99.99
2019-05-13T02:48:27.381Z,99.99
2019-05-13T02:49:27.382Z,99.99
2019-05-13T02:50:27.359Z,99.99
2019-05-13T02:51:27.363Z,99.99
2019-05-13T02:52:27.351Z,99.99
2019-05-13T02:53:27.334Z,99.99
2019-05-13T02:54:27.311Z,99.99
2019-05-13T02:55:27.934Z,99.99
2019-05-13T02:56:27.292Z,99.99
2019-05-13T02:57:27.448Z,99.99
2019-05-13T02:58:27.934Z,99.99
2019-05-13T02:59:27.257Z,99.99
2019-05-13T03:00:27.249Z,99.99
2019-05-13T03:01:27.243Z,99.99
2019-05-13T03:02:27.239Z,99.99
2019-05-13T03:03:27.251Z,99.99
2019-05-13T03:04:27.213Z,99.99
2019-05-13T03:05:27.193Z,99.99
2019-05-13T03:06:27.181Z,99.99
2019-05-13T03:07:27.191Z,99.99
2019-05-13T03:08:44.745Z,99.99
2019-05-13T03:09:28.171Z,99.99
2019-05-13T03:10:27.147Z,99.99
2019-05-13T03:11:27.129Z,99.99
2019-05-13T03:12:27.117Z,99.99
2019-05-13T03:13:27.126Z,99.99
2019-05-13T03:14:27.099Z,99.99
2019-05-13T03:15:27.092Z,99.99
2019-05-13T03:16:27.070Z,99.99
2019-05-13T03:17:27.088Z,99.99
2019-05-13T03:18:27.173Z,99.99
2019-05-13T03:19:27.051Z,99.99
2019-05-13T03:20:27.918Z,99.99
2019-05-13T03:21:27.916Z,99.99
2019-05-13T03:22:27.026Z,99.99
2019-05-13T03:23:27.012Z,99.99
2019-05-13T03:24:26.984Z,99.99
2019-05-13T03:25:27.007Z,99.99
2019-05-13T03:26:26.995Z,99.99
2019-05-13T03:27:26.952Z,99.99
2019-05-13T03:28:26.941Z,99.99
2019-05-13T03:29:26.932Z,99.99
2019-05-13T03:30:26.917Z,99.99
2019-05-13T03:31:27.167Z,99.99
2019-05-13T03:32:35.111Z,99.99
2019-05-13T03:33:28.869Z,99.99
2019-05-13T03:34:27.541Z,99.99
2019-05-13T03:35:28.117Z,99.99
2019-05-13T03:36:27.051Z,99.99
2019-05-13T03:37:27.474Z,99.99
2019-05-13T03:38:26.831Z,99.99
2019-05-13T03:39:26.817Z,99.99
2019-05-13T03:40:26.822Z,99.99
2019-05-13T03:41:26.802Z,99.99
2019-05-13T03:42:26.783Z,99.99
2019-05-13T03:43:26.782Z,99.99
2019-05-13T03:44:26.788Z,99.99
2019-05-13T03:45:26.766Z,99.99
2019-05-13T03:46:26.745Z,99.99
2019-05-13T03:47:26.762Z,99.99
2019-05-13T03:48:26.716Z,99.99
2019-05-13T03:49:26.714Z,99.99
2019-05-13T03:50:30.516Z,99.99
2019-05-13T03:51:27.790Z,99.99
2019-05-13T03:52:26.672Z,99.99
2019-05-13T03:53:26.665Z,99.99
2019-05-13T03:54:26.654Z,99.99
2019-05-13T03:55:26.660Z,99.99
2019-05-13T03:56:26.648Z,99.99
2019-05-13T03:57:26.620Z,99.99
2019-05-13T03:58:26.665Z,99.99
2019-05-13T03:59:26.598Z,99.99
2019-05-13T04:00:26.594Z,99.99
2019-05-13T04:01:26.603Z,99.99
2019-05-13T04:02:26.576Z,99.99
2019-05-13T04:03:26.551Z,99.99
2019-05-13T04:04:26.710Z,99.99
2019-05-13T04:05:26.534Z,99.99
2019-05-13T04:06:26.524Z,99.99
2019-05-13T04:07:26.941Z,99.99
2019-05-13T04:08:26.531Z,99.99
2019-05-13T04:09:31.497Z,99.99
2019-05-13T04:10:27.474Z,99.99
2019-05-13T04:11:27.405Z,99.99
2019-05-13T04:12:28.482Z,99.99
2019-05-13T04:13:26.462Z,99.99
2019-05-13T04:14:26.444Z,99.99
2019-05-13T04:15:26.443Z,99.99
2019-05-13T04:16:26.413Z,99.99
2019-05-13T04:17:26.400Z,99.99
2019-05-13T04:18:26.404Z,99.99
2019-05-13T04:19:26.376Z,99.99
2019-05-13T04:20:26.486Z,99.99
2019-05-13T04:21:26.354Z,99.99
2019-05-13T04:22:26.426Z,99.99
2019-05-13T04:23:26.333Z,99.99
2019-05-13T04:24:26.357Z,99.99
2019-05-13T04:25:26.328Z,99.99
2019-05-13T04:26:26.311Z,99.99
2019-05-13T04:27:26.484Z,99.99
2019-05-13T04:28:26.278Z,99.99
2019-05-13T04:29:26.906Z,99.99
2019-05-13T04:30:26.430Z,99.99
2019-05-13T04:31:26.274Z,99.99
2019-05-13T04:32:28.974Z,99.99
2019-05-13T04:33:27.220Z,99.99
2019-05-13T04:34:26.225Z,99.99
2019-05-13T04:35:26.222Z,99.99
2019-05-13T04:36:26.186Z,99.99
2019-05-13T04:37:28.914Z,99.99
2019-05-13T04:38:26.163Z,99.99
2019-05-13T04:39:44.451Z,99.99
2019-05-13T04:40:27.142Z,99.99
2019-05-13T04:41:26.133Z,99.99
2019-05-13T04:42:26.907Z,99.99
2019-05-13T04:43:30.293Z,99.99
2019-05-13T04:44:28.407Z,99.94
2019-05-13T04:45:26.103Z,99.27
2019-05-13T04:46:26.088Z,99.37
2019-05-13T04:47:26.064Z,99.99
2019-05-13T04:48:26.054Z,99.58
2019-05-13T04:49:26.047Z,99.02
2019-05-13T04:50:26.051Z,99.33
2019-05-13T04:51:26.133Z,99.22
2019-05-13T04:52:26.009Z,99.07
2019-05-13T04:53:25.997Z,98.91
2019-05-13T04:54:26.009Z,99.07
2019-05-13T04:55:25.992Z,98.61
2019-05-13T04:56:25.977Z,98.20
2019-05-13T04:57:25.977Z,97.80
2019-05-13T04:58:25.955Z,96.79
2019-05-13T04:59:25.948Z,93.30
2019-05-13T05:00:26.435Z,89.05
2019-05-13T05:01:25.910Z,84.70
2019-05-13T05:02:37.402Z,84.38
2019-05-13T05:03:33.240Z,83.89
2019-05-13T05:04:30.626Z,80.73
2019-05-13T05:05:26.397Z,77.68
2019-05-13T05:06:25.877Z,75.59
2019-05-13T05:07:25.849Z,74.94
2019-05-13T05:08:25.940Z,72.03
2019-05-13T05:09:26.395Z,72.82
2019-05-13T05:10:33.617Z,70.12
2019-05-13T05:11:26.842Z,71.29
2019-05-13T05:12:25.795Z,70.20
2019-05-13T05:13:25.777Z,66.21
2019-05-13T05:14:25.974Z,68.63
2019-05-13T05:15:26.360Z,66.36
2019-05-13T05:16:25.741Z,65.54
2019-05-13T05:17:25.755Z,66.02
2019-05-13T05:18:25.982Z,65.89
2019-05-13T05:19:25.721Z,63.58
2019-05-13T05:20:25.710Z,63.24
2019-05-13T05:21:25.685Z,60.50
2019-05-13T05:22:25.679Z,59.68
2019-05-13T05:23:25.725Z,60.57
2019-05-13T05:24:25.671Z,62.17
2019-05-13T05:25:25.660Z,58.28
2019-05-13T05:26:25.654Z,57.87
2019-05-13T05:27:25.618Z,57.71
2019-05-13T05:28:25.625Z,57.10
2019-05-13T05:29:25.638Z,57.76
2019-05-13T05:30:25.586Z,54.72
2019-05-13T05:31:25.577Z,54.54
2019-05-13T05:32:25.591Z,56.54
2019-05-13T05:33:26.427Z,53.72
2019-05-13T05:34:26.396Z,54.94
2019-05-13T05:35:26.391Z,55.02
2019-05-13T05:36:26.392Z,55.10
2019-05-13T05:37:25.511Z,54.49
2019-05-13T05:38:26.391Z,52.86
2019-05-13T05:39:26.421Z,53.93
2019-05-13T05:40:31.253Z,56.19
2019-05-13T05:41:27.391Z,55.22
2019-05-13T05:42:25.463Z,53.72
2019-05-13T05:43:25.479Z,56.47
2019-05-13T05:44:26.425Z,55.71
2019-05-13T05:45:34.023Z,56.26
2019-05-13T05:46:34.145Z,53.78
2019-05-13T05:47:33.015Z,52.69
2019-05-13T05:48:34.460Z,53.75
2019-05-13T05:49:33.054Z,55.05
2019-05-13T05:53:57.314Z,51.16
2019-05-13T05:55:05.445Z,57.39
2019-05-13T05:55:56.855Z,57.82
2019-05-13T05:57:03.351Z,57.10
2019-05-13T05:57:56.694Z,54.82
2019-05-13T05:58:57.334Z,52.86
2019-05-13T05:59:56.697Z,52.05
2019-05-13T06:00:56.655Z,55.76
2019-05-13T06:01:56.659Z,56.42
2019-05-13T06:02:56.643Z,54.51
2019-05-13T06:03:56.636Z,52.91
2019-05-13T06:04:56.652Z,54.13
2019-05-13T06:05:57.427Z,53.19
2019-05-13T06:06:58.345Z,52.36
2019-05-13T06:07:57.334Z,53.17
2019-05-13T06:08:56.578Z,51.90
2019-05-13T06:09:56.636Z,51.32
2019-05-13T06:10:56.545Z,53.22
2019-05-13T06:11:56.850Z,53.58
2019-05-13T06:12:57.318Z,53.75
2019-05-13T06:13:56.509Z,51.17
2019-05-13T06:14:56.534Z,51.83
2019-05-13T06:15:56.485Z,49.17
2019-05-13T06:16:57.021Z,49.60
2019-05-13T06:17:56.495Z,49.90
2019-05-13T06:18:56.463Z,49.70
2019-05-13T06:19:56.440Z,51.29
2019-05-13T06:20:57.326Z,51.70
2019-05-13T06:21:56.462Z,53.80
2019-05-13T06:22:56.407Z,53.17
2019-05-13T06:23:56.554Z,52.51
2019-05-13T06:24:56.561Z,51.17
2019-05-13T06:25:57.499Z,51.39
2019-05-13T06:26:56.368Z,51.65
2019-05-13T06:27:57.482Z,50.66
2019-05-13T06:28:56.385Z,52.92
2019-05-13T06:29:57.323Z,51.82
2019-05-13T06:30:56.320Z,51.93
2019-05-13T06:32:17.764Z,52.44
2019-05-13T06:32:57.841Z,51.60
2019-05-13T06:33:56.481Z,52.06
2019-05-13T06:34:56.280Z,49.58
2019-05-13T06:35:56.290Z,48.34
2019-05-13T06:36:56.879Z,48.30
2019-05-13T06:38:22.298Z,47.69
2019-05-13T06:38:56.263Z,49.76
2019-05-13T06:40:01.690Z,47.39
2019-05-13T06:41:02.877Z,48.42
2019-05-13T06:42:03.851Z,48.39
2019-05-13T06:42:56.824Z,47.54
2019-05-13T06:43:56.189Z,46.88
2019-05-13T06:44:56.172Z,48.11
2019-05-13T06:45:56.169Z,47.87
2019-05-13T06:46:56.151Z,48.15
2019-05-13T06:47:56.825Z,48.41
2019-05-13T06:48:56.205Z,45.16
2019-05-13T06:49:56.169Z,45.25
2019-05-13T06:50:56.117Z,46.48
2019-05-13T06:51:56.118Z,47.14
2019-05-13T06:52:56.090Z,45.10
2019-05-13T06:53:56.867Z,44.49
2019-05-13T06:54:56.084Z,45.14
2019-05-13T06:55:56.045Z,45.53
2019-05-13T06:56:56.380Z,44.34
2019-05-13T06:57:56.095Z,45.45
2019-05-13T06:58:56.828Z,46.13
2019-05-13T06:59:55.996Z,45.32
2019-05-13T07:00:57.895Z,46.43
2019-05-13T07:01:56.992Z,46.07
2019-05-13T07:02:55.967Z,48.05
2019-05-13T07:03:55.971Z,50.31
2019-05-13T07:04:55.942Z,50.12
2019-05-13T07:05:55.929Z,51.06
2019-05-13T07:07:10.049Z,54.24
2019-05-13T07:07:57.021Z,52.33
2019-05-13T07:08:55.937Z,50.26
2019-05-13T07:09:55.897Z,50.49
2019-05-13T07:10:55.884Z,48.19
2019-05-13T07:11:57.143Z,46.23
2019-05-13T07:12:56.855Z,46.53
2019-05-13T07:13:55.860Z,45.16
2019-05-13T07:14:55.940Z,45.03
2019-05-13T07:15:55.973Z,43.77
2019-05-13T07:16:55.882Z,44.70
2019-05-13T07:17:55.800Z,45.62
2019-05-13T07:18:56.327Z,46.62
2019-05-13T07:19:55.802Z,48.02
2019-05-13T07:20:56.355Z,46.88
2019-05-13T07:21:55.794Z,48.93
2019-05-13T07:22:55.750Z,49.13
2019-05-13T07:23:55.854Z,48.27
2019-05-13T07:24:55.719Z,45.85
2019-05-13T07:25:55.711Z,46.03
2019-05-13T07:26:55.831Z,46.88
2019-05-13T07:28:02.424Z,46.91
2019-05-13T07:28:56.071Z,47.59
2019-05-13T07:29:55.878Z,47.16
2019-05-13T07:30:55.655Z,47.08
2019-05-13T07:31:57.017Z,46.84
2019-05-13T07:32:56.330Z,46.01
2019-05-13T07:33:55.638Z,46.06
2019-05-13T07:34:55.620Z,44.53
2019-05-13T07:35:58.491Z,44.53
2019-05-13T07:36:56.328Z,44.21
2019-05-13T07:37:58.342Z,45.73
2019-05-13T07:38:57.473Z,44.11
2019-05-13T07:39:55.565Z,44.59
2019-05-13T07:40:55.724Z,46.34
2019-05-13T07:41:56.443Z,44.01
2019-05-13T07:42:55.526Z,42.38
2019-05-13T07:43:56.355Z,42.52
2019-05-13T07:44:56.546Z,44.59
2019-05-13T07:45:56.336Z,42.35
2019-05-13T07:46:55.499Z,42.13
2019-05-13T07:47:55.474Z,40.12
2019-05-13T07:48:57.463Z,41.67
2019-05-13T07:49:55.508Z,41.45
2019-05-13T07:51:00.321Z,41.77
2019-05-13T07:51:56.884Z,42.46
2019-05-13T07:52:55.863Z,44.67
2019-05-13T07:53:56.331Z,44.87
2019-05-13T07:54:56.407Z,44.45
2019-05-13T07:55:58.382Z,43.02
2019-05-13T07:56:55.418Z,42.40
2019-05-13T07:58:02.334Z,44.51
2019-05-13T07:58:55.350Z,45.14
2019-05-13T07:59:55.413Z,44.94
2019-05-13T08:00:55.893Z,44.74
2019-05-13T08:01:55.866Z,46.13
2019-05-13T08:02:55.430Z,46.43
2019-05-13T08:03:55.918Z,45.00
2019-05-13T08:05:02.613Z,44.51
2019-05-13T08:05:55.867Z,44.19
2019-05-13T08:06:55.833Z,42.66
2019-05-13T08:08:17.289Z,42.32
2019-05-13T08:08:55.440Z,44.09
2019-05-13T08:09:59.630Z,42.46
2019-05-13T08:10:56.211Z,40.95
2019-05-13T08:12:05.479Z,41.05
2019-05-13T08:12:56.857Z,43.38
2019-05-13T08:13:58.080Z,43.89
2019-05-13T08:14:57.833Z,43.91
2019-05-13T08:15:55.177Z,44.07
2019-05-13T08:16:57.874Z,44.67
2019-05-13T08:18:12.199Z,43.97
2019-05-13T08:18:55.350Z,43.24
2019-05-13T08:19:55.848Z,42.92
2019-05-13T08:20:57.860Z,42.30
2019-05-13T08:21:55.292Z,43.32
2019-05-13T08:22:55.120Z,43.30
2019-05-13T08:23:55.071Z,44.71
2019-05-13T08:24:55.922Z,44.74
2019-05-13T08:25:55.285Z,44.49
2019-05-13T08:27:01.637Z,43.44
2019-05-13T08:27:55.834Z,42.50
2019-05-13T08:29:01.696Z,44.05
2019-05-13T08:29:55.708Z,42.90
2019-05-13T08:30:55.641Z,42.47
2019-05-13T08:31:55.060Z,40.14
2019-05-13T08:33:01.576Z,39.76
2019-05-13T08:33:55.850Z,41.95
2019-05-13T08:35:01.824Z,44.03
2019-05-13T08:35:58.678Z,42.94
2019-05-13T08:36:54.984Z,44.43
2019-05-13T08:38:02.968Z,43.89
2019-05-13T08:40:12.069Z,42.88
2019-05-13T08:41:19.058Z,42.01
2019-05-13T08:42:15.932Z,39.90
2019-05-13T08:43:42.860Z,40.59
2019-05-13T08:44:12.141Z,40.04
2019-05-13T08:45:12.063Z,42.19
2019-05-13T08:46:08.972Z,42.72
2019-05-13T08:47:11.876Z,43.80
2019-05-13T08:48:12.739Z,41.57
2019-05-13T08:49:11.794Z,41.17
2019-05-13T08:50:08.904Z,40.44
2019-05-13T08:51:13.219Z,40.33
2019-05-13T08:52:11.846Z,42.38
2019-05-13T08:53:13.399Z,42.88
2019-05-13T08:54:16.892Z,42.70
2019-05-13T08:56:24.756Z,43.89
2019-05-13T08:57:46.996Z,43.69
2019-05-13T08:58:26.555Z,44.21
2019-05-13T08:59:31.537Z,46.78
2019-05-13T09:00:24.616Z,44.76
2019-05-13T09:01:27.354Z,44.56
2019-05-13T09:02:42.044Z,44.13
2019-05-13T09:03:24.329Z,45.12
2019-05-13T09:04:23.645Z,44.92
2019-05-13T09:05:23.460Z,43.89
2019-05-13T09:06:31.232Z,44.56
2019-05-13T09:07:51.834Z,45.02
2019-05-13T09:08:23.953Z,44.67
2019-05-13T09:09:24.638Z,42.80
2019-05-13T09:10:24.540Z,41.77
2019-05-13T09:11:48.335Z,40.48
2019-05-13T09:12:32.109Z,40.32
2019-05-13T09:13:29.256Z,42.44
2019-05-13T09:14:32.699Z,41.13
2019-05-13T09:15:42.085Z,41.63
2019-05-13T09:16:23.656Z,40.00
2019-05-13T09:17:27.451Z,40.58
2019-05-13T09:18:46.777Z,41.43
2019-05-13T09:19:26.463Z,40.11
2019-05-13T09:20:37.930Z,39.40
2019-05-13T09:21:37.849Z,38.45
2019-05-13T09:22:23.519Z,40.64
2019-05-13T09:23:44.312Z,41.42
2019-05-13T09:24:37.106Z,42.60
2019-05-13T09:25:26.846Z,42.27
2019-05-13T09:26:23.630Z,41.95
2019-05-13T09:27:23.233Z,41.79
2019-05-13T09:28:24.212Z,40.16
2019-05-13T09:29:32.267Z,40.06
2019-05-13T09:30:27.133Z,41.85
2019-05-13T09:31:25.166Z,42.47
2019-05-13T09:32:38.207Z,39.85
2019-05-13T09:33:29.319Z,42.33
2019-05-13T09:34:25.561Z,39.37
2019-05-13T09:35:25.136Z,38.85
2019-05-13T09:36:26.502Z,40.16
2019-05-13T09:37:24.778Z,39.41
2019-05-13T09:38:27.163Z,40.40
2019-05-13T09:39:32.092Z,39.07
2019-05-13T09:40:23.134Z,40.18
2019-05-13T09:41:24.227Z,41.06
2019-05-13T09:42:26.354Z,42.66
2019-05-13T09:43:24.193Z,38.81
2019-05-13T09:44:24.260Z,39.12
2019-05-13T09:45:27.356Z,39.23
2019-05-13T09:46:23.073Z,40.25
2019-05-13T09:47:28.381Z,42.66
2019-05-13T09:48:24.243Z,40.94
2019-05-13T09:49:23.691Z,39.29
2019-05-13T09:50:29.319Z,40.06
2019-05-13T09:51:24.960Z,39.43
2019-05-13T09:52:23.777Z,39.70
2019-05-13T09:53:23.811Z,40.42
2019-05-13T09:54:24.055Z,41.59
2019-05-13T09:55:28.977Z,37.74
2019-05-13T09:56:23.984Z,39.94
2019-05-13T09:57:23.162Z,38.90
2019-05-13T09:58:24.260Z,36.27
2019-05-13T09:59:23.123Z,37.77
2019-05-13T10:00:25.190Z,38.70
2019-05-13T10:01:22.904Z,36.18
2019-05-13T10:02:23.890Z,37.61
2019-05-13T10:03:29.114Z,36.11
2019-05-13T10:04:25.881Z,38.28
2019-05-13T10:05:25.237Z,38.18
2019-05-13T10:06:23.990Z,38.75
2019-05-13T10:07:24.329Z,43.79
2019-05-13T10:08:22.812Z,40.14
2019-05-13T10:09:24.011Z,39.50
2019-05-13T10:10:22.917Z,39.15
2019-05-13T10:11:22.811Z,39.78
2019-05-13T10:12:24.680Z,38.20
2019-05-13T10:13:23.414Z,39.45
2019-05-13T10:14:23.152Z,39.40
2019-05-13T10:15:25.482Z,38.49
2019-05-13T10:16:22.715Z,41.14
2019-05-13T10:17:22.710Z,41.02
2019-05-13T10:18:22.715Z,39.83
2019-05-13T10:19:22.693Z,40.53
2019-05-13T10:20:23.357Z,40.64
2019-05-13T10:21:22.657Z,40.73
2019-05-13T10:22:22.657Z,41.55
2019-05-13T10:23:22.653Z,40.01
2019-05-13T10:24:22.991Z,40.31
2019-05-13T10:25:22.730Z,40.72
2019-05-13T10:26:23.307Z,41.81
2019-05-13T10:27:22.757Z,39.67
2019-05-13T10:28:22.598Z,38.44
2019-05-13T10:29:22.718Z,37.24
2019-05-13T10:30:22.706Z,39.37
2019-05-13T10:31:22.547Z,38.96
2019-05-13T10:32:25.318Z,36.88
2019-05-13T10:33:22.539Z,38.45
2019-05-13T10:34:22.892Z,38.11
2019-05-13T10:35:22.520Z,38.39
2019-05-13T10:36:22.670Z,38.19
2019-05-13T10:37:22.489Z,38.59
2019-05-13T10:38:27.037Z,39.70
2019-05-13T10:39:23.455Z,40.21
2019-05-13T10:40:23.011Z,40.19
2019-05-13T10:41:23.342Z,39.59
2019-05-13T10:42:22.502Z,40.58
2019-05-13T10:43:30.918Z,40.68
2019-05-13T10:44:23.405Z,43.20
2019-05-13T10:45:22.867Z,42.68
2019-05-13T10:46:22.462Z,40.23
2019-05-13T10:47:22.953Z,37.70
2019-05-13T10:48:22.363Z,37.13
2019-05-13T10:49:22.871Z,37.28
2019-05-13T10:50:27.534Z,38.43
2019-05-13T10:51:23.344Z,37.76
2019-05-13T10:52:23.082Z,39.46
2019-05-13T10:53:22.378Z,38.41
2019-05-13T10:54:22.295Z,38.82
2019-05-13T10:55:22.277Z,36.59
2019-05-13T10:56:22.274Z,38.53
2019-05-13T10:57:22.283Z,37.20
2019-05-13T10:58:23.439Z,37.89
2019-05-13T10:59:23.169Z,38.39
2019-05-13T11:00:22.871Z,38.48
2019-05-13T11:01:22.690Z,37.37
2019-05-13T11:02:22.338Z,38.59
2019-05-13T11:03:22.991Z,38.88
2019-05-13T11:04:22.404Z,38.57
2019-05-13T11:05:22.872Z,37.89
2019-05-13T11:06:22.232Z,37.20
2019-05-13T11:07:22.595Z,39.04
2019-05-13T11:08:22.558Z,38.61
2019-05-13T11:09:22.297Z,39.50
2019-05-13T11:10:22.347Z,38.39
2019-05-13T11:11:22.175Z,40.50
2019-05-13T11:12:25.420Z,41.28
2019-05-13T11:13:23.480Z,38.66
2019-05-13T11:14:22.480Z,36.34
2019-05-13T11:15:22.058Z,38.35
2019-05-13T11:16:22.695Z,40.94
2019-05-13T11:17:30.646Z,43.00
2019-05-13T11:18:24.448Z,42.27
2019-05-13T11:19:22.890Z,39.12
2019-05-13T11:20:22.181Z,40.84
2019-05-13T11:21:22.427Z,38.82
2019-05-13T11:22:22.647Z,39.26
2019-05-13T11:23:23.465Z,38.37
2019-05-13T11:25:22.962Z,39.07
2019-05-13T11:26:22.350Z,38.48
2019-05-13T11:27:23.446Z,37.89
2019-05-13T11:28:21.931Z,37.27
2019-05-13T11:29:24.451Z,37.89
2019-05-13T11:30:22.159Z,38.82
2019-05-13T11:31:22.633Z,42.55
2019-05-13T11:32:22.399Z,40.02
2019-05-13T11:33:22.463Z,41.36
2019-05-13T11:34:22.427Z,40.43
2019-05-13T11:35:26.092Z,42.23
2019-05-13T11:36:23.444Z,41.71
2019-05-13T11:37:23.451Z,39.98
2019-05-13T11:38:22.359Z,39.88
2019-05-13T11:39:22.309Z,41.80
2019-05-13T11:40:22.505Z,40.51
2019-05-13T11:41:22.968Z,40.02
2019-05-13T11:42:24.304Z,39.31
2019-05-13T11:43:27.092Z,40.43
2019-05-13T11:44:23.033Z,39.42
2019-05-13T11:45:22.508Z,40.36
2019-05-13T11:46:33.095Z,40.36
2019-05-13T11:47:22.722Z,41.99
2019-05-13T11:48:23.459Z,41.97
2019-05-13T11:49:21.702Z,42.37
2019-05-13T11:50:22.547Z,42.15
2019-05-13T11:51:24.147Z,40.20
2019-05-13T11:52:22.654Z,38.46
2019-05-13T11:53:37.468Z,39.28
2019-05-13T11:54:22.669Z,40.29
2019-05-13T11:55:23.164Z,40.64
2019-05-13T11:56:29.266Z,41.41
2019-05-13T11:57:25.472Z,37.46
2019-05-13T11:58:22.651Z,36.94
2019-05-13T11:59:22.321Z,37.93
2019-05-13T12:00:21.899Z,37.24
2019-05-13T12:01:23.024Z,35.14
2019-05-13T12:02:24.345Z,36.04
2019-05-13T12:03:23.311Z,36.74
2019-05-13T12:04:24.436Z,37.33
2019-05-13T12:05:41.628Z,39.45
2019-05-13T12:06:48.031Z,37.57
2019-05-13T12:07:23.461Z,37.40
2019-05-13T12:08:22.676Z,35.60
2019-05-13T12:09:23.229Z,38.95
2019-05-13T12:10:36.306Z,39.17
2019-05-13T12:11:24.367Z,38.59
2019-05-13T12:12:25.053Z,39.80
2019-05-13T12:13:23.802Z,39.98
2019-05-13T12:14:42.961Z,39.07
2019-05-13T12:15:33.523Z,38.37
2019-05-13T12:16:23.661Z,40.19
2019-05-13T12:17:24.507Z,40.41
2019-05-13T12:18:24.461Z,38.99
2019-05-13T12:19:22.013Z,42.05
2019-05-13T12:20:22.352Z,40.22
2019-05-13T12:21:21.331Z,37.35
2019-05-13T12:22:22.989Z,38.82
2019-05-13T12:23:21.818Z,38.28
2019-05-13T12:24:28.847Z,36.64
2019-05-13T12:25:22.434Z,37.84
2019-05-13T12:26:23.754Z,39.18
2019-05-13T12:27:21.260Z,40.55
2019-05-13T12:28:21.265Z,37.12
2019-05-13T12:29:21.243Z,35.50
2019-05-13T12:30:22.717Z,35.60
2019-05-13T12:31:22.274Z,37.13
2019-05-13T12:32:22.480Z,38.61
2019-05-13T12:33:22.761Z,36.90
2019-05-13T12:34:22.838Z,36.68
2019-05-13T12:35:22.805Z,39.06
2019-05-13T12:36:23.613Z,38.54
2019-05-13T12:37:22.171Z,34.88
2019-05-13T12:38:22.617Z,37.27
2019-05-13T12:39:23.758Z,36.39
2019-05-13T12:40:23.069Z,36.08
2019-05-13T12:41:23.128Z,34.07
2019-05-13T12:42:22.776Z,32.76
2019-05-13T12:43:24.078Z,30.55
2019-05-13T12:44:22.775Z,31.04
2019-05-13T12:45:22.407Z,32.27
2019-05-13T12:46:24.771Z,31.46
2019-05-13T12:47:22.753Z,32.59
2019-05-13T12:48:22.868Z,33.51
2019-05-13T12:49:22.049Z,32.81
2019-05-13T12:50:23.638Z,32.81
2019-05-13T12:51:22.710Z,34.45
2019-05-13T12:52:22.815Z,33.26
2019-05-13T12:53:22.118Z,36.37
2019-05-13T12:54:23.432Z,34.44
2019-05-13T12:55:21.737Z,32.81
2019-05-13T12:56:23.574Z,33.90
2019-05-13T12:57:23.184Z,32.29
2019-05-13T12:58:23.601Z,31.55
2019-05-13T12:59:22.313Z,30.46